createdAt,value
2023-04-25T00:00:08.013Z,14.90
2023-04-25T00:02:41.557Z,14.90
2023-04-25T00:05:09.387Z,14.90
2023-04-25T00:07:36.726Z,14.80
2023-04-25T00:10:04.550Z,14.80
2023-04-25T00:12:32.256Z,14.80
2023-04-25T00:15:01.065Z,14.70
2023-04-25T00:17:33.435Z,14.70
2023-04-25T00:20:01.072Z,14.70
2023-04-25T00:22:28.514Z,14.70
2023-04-25T00:24:58.250Z,14.80
2023-04-25T00:27:25.402Z,14.70
2023-04-25T00:29:52.756Z,14.60
2023-04-25T00:32:20.541Z,14.50
2023-04-25T00:34:47.933Z,14.50
2023-04-25T00:37:15.489Z,14.40
2023-04-25T00:39:44.775Z,14.30
2023-04-25T00:42:12.825Z,14.30
2023-04-25T00:44:41.176Z,14.30
2023-04-25T00:47:09.089Z,14.30
2023-04-25T00:49:36.631Z,14.30
2023-04-25T00:52:04.059Z,14.30
2023-04-25T00:54:31.804Z,14.30
2023-04-25T00:56:59.814Z,14.30
2023-04-25T00:59:28.282Z,14.40
2023-04-25T01:01:56.034Z,14.40
2023-04-25T01:04:23.660Z,14.40
2023-04-25T01:06:51.267Z,14.40
2023-04-25T01:09:20.601Z,14.40
2023-04-25T01:11:47.876Z,14.40
2023-04-25T01:14:15.024Z,14.30
2023-04-25T01:16:42.582Z,14.30
2023-04-25T01:19:14.647Z,14.20
2023-04-25T01:21:42.272Z,14.20
2023-04-25T01:24:09.589Z,14.20
2023-04-25T01:26:37.538Z,14.10
2023-04-25T01:29:06.015Z,14.10
2023-04-25T01:31:34.186Z,14.10
2023-04-25T01:34:01.476Z,14.10
2023-04-25T01:36:30.131Z,14.00
2023-04-25T01:38:57.983Z,14.00
2023-04-25T01:41:25.968Z,13.90
2023-04-25T01:43:53.587Z,14.00
2023-04-25T01:46:21.358Z,14.00
2023-04-25T01:48:48.784Z,14.00
2023-04-25T01:51:16.778Z,14.00
2023-04-25T01:53:44.581Z,13.90
2023-04-25T01:56:12.349Z,13.80
2023-04-25T01:58:40.372Z,13.90
2023-04-25T02:01:34.319Z,13.80
2023-04-25T02:04:15.630Z,13.80
2023-04-25T02:06:43.161Z,13.80
2023-04-25T02:09:10.757Z,13.80
2023-04-25T02:11:43.230Z,13.80
2023-04-25T02:14:26.260Z,13.70
2023-04-25T02:17:03.304Z,13.70
2023-04-25T02:19:32.186Z,13.80
2023-04-25T02:21:59.684Z,13.70
2023-04-25T02:24:29.001Z,13.70
2023-04-25T02:26:57.222Z,13.70
2023-04-25T02:29:24.557Z,13.60
2023-04-25T02:31:51.900Z,13.70
2023-04-25T02:34:19.313Z,13.70
2023-04-25T02:36:46.557Z,13.60
2023-04-25T02:39:13.776Z,13.60
2023-04-25T02:41:41.127Z,13.60
2023-04-25T02:44:08.516Z,13.60
2023-04-25T02:46:39.284Z,13.50
2023-04-25T02:49:07.462Z,13.50
2023-04-25T02:51:35.484Z,13.50
2023-04-25T02:54:03.099Z,13.40
2023-04-25T02:56:32.172Z,13.30
2023-04-25T02:58:59.431Z,13.30
2023-04-25T03:01:27.327Z,13.30
2023-04-25T03:03:55.110Z,13.20
2023-04-25T03:06:22.749Z,13.30
2023-04-25T03:08:49.945Z,13.20
2023-04-25T03:11:17.293Z,13.20
2023-04-25T03:13:44.581Z,13.30
2023-04-25T03:16:12.761Z,13.20
2023-04-25T03:18:39.884Z,13.20
2023-04-25T03:21:07.152Z,13.20
2023-04-25T03:23:35.055Z,13.20
2023-04-25T03:26:02.421Z,13.20
2023-04-25T03:28:29.753Z,13.20
2023-04-25T03:30:58.132Z,13.20
2023-04-25T03:33:25.511Z,13.10
2023-04-25T03:35:53.090Z,13.10
2023-04-25T03:38:20.873Z,13.10
2023-04-25T03:40:48.222Z,13.10
2023-04-25T03:43:21.967Z,13.10
2023-04-25T03:45:58.342Z,13.10
2023-04-25T03:48:27.971Z,13.20
2023-04-25T03:50:55.824Z,13.20
2023-04-25T03:53:23.435Z,13.10
2023-04-25T03:56:28.938Z,13.20
2023-04-25T03:59:03.169Z,13.20
2023-04-25T04:01:31.562Z,13.20
2023-04-25T04:03:59.009Z,13.20
2023-04-25T04:06:27.729Z,13.10
2023-04-25T04:09:04.247Z,13.20
2023-04-25T04:11:35.054Z,13.20
2023-04-25T04:14:02.322Z,13.20
2023-04-25T04:16:31.448Z,13.10
2023-04-25T04:19:00.968Z,13.10
2023-04-25T04:21:28.676Z,13.00
2023-04-25T04:23:56.022Z,13.10
2023-04-25T04:26:24.434Z,13.10
2023-04-25T04:29:06.280Z,13.10
2023-04-25T04:31:41.344Z,13.10
2023-04-25T04:34:08.702Z,13.00
2023-04-25T04:36:36.384Z,13.00
2023-04-25T04:39:04.733Z,13.10
2023-04-25T04:41:44.979Z,13.10
2023-04-25T04:44:16.325Z,13.00
2023-04-25T04:46:50.519Z,13.10
2023-04-25T04:49:47.614Z,13.10
2023-04-25T04:52:44.517Z,13.10
2023-04-25T04:55:31.139Z,13.10
2023-04-25T04:58:18.638Z,13.10
2023-04-25T05:00:56.405Z,13.00
2023-04-25T05:03:34.767Z,12.90
2023-04-25T05:06:22.668Z,13.00
2023-04-25T05:09:13.083Z,13.00
2023-04-25T05:12:02.373Z,13.00
2023-04-25T05:14:49.957Z,13.00
2023-04-25T05:23:26.037Z,12.60
2023-04-25T05:26:04.380Z,12.70
2023-04-25T05:28:58.599Z,12.70
2023-04-25T05:31:55.094Z,12.70
2023-04-25T05:34:22.319Z,12.70
2023-04-25T05:36:57.223Z,12.70
2023-04-25T05:39:25.630Z,12.70
2023-04-25T05:42:09.816Z,12.60
2023-04-25T05:45:01.759Z,12.40
2023-04-25T05:47:55.163Z,12.30
2023-04-25T05:50:39.518Z,12.20
2023-04-25T05:53:33.497Z,12.10
2023-04-25T05:56:02.877Z,12.10
2023-04-25T05:58:31.152Z,12.20
2023-04-25T06:01:00.656Z,12.10
2023-04-25T06:03:28.767Z,12.10
2023-04-25T06:05:58.546Z,12.00
2023-04-25T06:08:26.493Z,12.10
2023-04-25T06:10:53.878Z,12.00
2023-04-25T06:13:21.098Z,12.10
2023-04-25T06:15:48.820Z,12.10
2023-04-25T06:18:16.053Z,12.10
2023-04-25T06:20:43.432Z,12.10
2023-04-25T06:23:10.773Z,12.10
2023-04-25T06:26:03.196Z,12.00
2023-04-25T06:28:34.394Z,11.90
2023-04-25T06:31:02.302Z,11.90
2023-04-25T06:33:30.293Z,12.00
2023-04-25T06:35:58.293Z,12.00
2023-04-25T06:38:29.403Z,12.10
2023-04-25T06:40:58.584Z,12.10
2023-04-25T06:43:29.168Z,12.20
2023-04-25T06:46:17.896Z,12.20
2023-04-25T06:48:48.164Z,12.20
2023-04-25T06:51:16.123Z,12.10
2023-04-25T06:53:45.057Z,12.10
2023-04-25T06:56:22.462Z,12.10
2023-04-25T06:59:01.372Z,12.10
2023-04-25T07:01:31.860Z,12.10
2023-04-25T07:04:01.487Z,12.10
2023-04-25T07:06:32.194Z,12.10
2023-04-25T07:08:59.692Z,12.20
2023-04-25T07:11:27.044Z,12.10
2023-04-25T07:13:54.202Z,12.10
2023-04-25T07:16:21.852Z,12.10
2023-04-25T07:18:49.382Z,12.10
2023-04-25T07:21:16.795Z,12.00
2023-04-25T07:23:46.248Z,12.10
2023-04-25T07:26:18.297Z,12.10
2023-04-25T07:29:05.793Z,12.20
2023-04-25T07:31:33.003Z,12.10
2023-04-25T07:34:02.043Z,12.20
2023-04-25T07:36:29.780Z,12.10
2023-04-25T07:38:58.643Z,12.20
2023-04-25T07:41:27.131Z,12.20
2023-04-25T07:43:54.515Z,12.40
2023-04-25T07:46:22.360Z,12.40
2023-04-25T07:48:49.914Z,12.30
2023-04-25T07:51:17.397Z,12.50
2023-04-25T07:53:44.709Z,12.50
2023-04-25T07:56:15.446Z,12.50
2023-04-25T07:58:45.668Z,12.50
2023-04-25T08:01:15.801Z,12.70
2023-04-25T08:03:58.724Z,12.70
2023-04-25T08:06:45.159Z,12.80
2023-04-25T08:09:20.196Z,13.00
2023-04-25T08:11:50.514Z,13.00
2023-04-25T08:14:22.173Z,13.10
2023-04-25T08:16:50.120Z,13.10
2023-04-25T08:19:18.223Z,13.20
2023-04-25T08:21:47.117Z,13.20
2023-04-25T08:24:19.685Z,13.30
2023-04-25T08:26:46.913Z,13.20
2023-04-25T08:29:17.556Z,13.30
2023-04-25T08:31:45.588Z,13.50
2023-04-25T08:34:14.188Z,13.50
2023-04-25T08:36:48.419Z,13.50
2023-04-25T08:39:35.154Z,13.60
2023-04-25T08:42:22.812Z,13.70
2023-04-25T08:44:51.738Z,13.80
2023-04-25T08:47:23.367Z,13.70
2023-04-25T08:49:56.946Z,13.70
2023-04-25T08:52:26.471Z,13.70
2023-04-25T08:54:56.487Z,13.80
2023-04-25T08:57:24.421Z,13.90
2023-04-25T08:59:56.609Z,14.10
2023-04-25T09:02:26.331Z,14.10
2023-04-25T09:04:55.970Z,14.10
2023-04-25T09:07:23.818Z,14.30
2023-04-25T09:09:51.307Z,14.40
2023-04-25T09:12:35.672Z,14.50
2023-04-25T09:15:05.331Z,14.40
2023-04-25T09:17:58.749Z,14.30
2023-04-25T09:20:31.899Z,14.20
2023-04-25T09:23:04.929Z,14.10
2023-04-25T09:25:40.047Z,14.00
2023-04-25T09:28:09.504Z,13.90
2023-04-25T09:30:37.860Z,13.90
2023-04-25T09:33:12.947Z,13.90
2023-04-25T09:35:46.569Z,14.10
2023-04-25T09:38:25.326Z,14.20
2023-04-25T09:40:58.010Z,14.20
2023-04-25T09:43:46.097Z,14.20
2023-04-25T09:46:13.805Z,14.30
2023-04-25T09:48:52.338Z,14.40
2023-04-25T09:51:28.732Z,14.60
2023-04-25T09:53:58.024Z,14.80
2023-04-25T09:56:42.341Z,15.10
2023-04-25T09:59:12.557Z,15.10
2023-04-25T10:01:42.975Z,14.90
2023-04-25T10:04:23.981Z,14.80
2023-04-25T10:07:15.382Z,14.80
2023-04-25T10:09:48.365Z,14.80
2023-04-25T10:12:15.900Z,14.80
2023-04-25T10:14:43.816Z,15.00
2023-04-25T10:17:12.573Z,15.00
2023-04-25T10:19:40.836Z,15.00
2023-04-25T10:22:34.071Z,14.70
2023-04-25T10:25:05.072Z,14.60
2023-04-25T10:27:33.470Z,14.80
2023-04-25T10:30:05.575Z,14.90
2023-04-25T10:32:34.833Z,15.00
2023-04-25T10:35:28.794Z,15.20
2023-04-25T10:37:59.944Z,15.40
2023-04-25T10:40:28.180Z,15.60
2023-04-25T10:42:56.374Z,15.80
2023-04-25T10:45:23.992Z,16.00
2023-04-25T10:47:51.784Z,16.10
2023-04-25T10:50:19.910Z,16.20
2023-04-25T10:52:47.388Z,16.30
2023-04-25T10:55:17.052Z,16.20
2023-04-25T10:57:50.960Z,16.20
2023-04-25T11:00:20.887Z,15.90
2023-04-25T11:02:59.516Z,15.70
2023-04-25T11:08:45.059Z,15.50
2023-04-25T11:11:12.339Z,15.40
2023-04-25T11:13:39.506Z,15.50
2023-04-25T11:16:13.215Z,15.40
2023-04-25T11:18:45.296Z,15.30
2023-04-25T11:21:14.524Z,15.30
2023-04-25T11:23:41.768Z,15.30
2023-04-25T11:26:09.138Z,15.40
2023-04-25T11:28:36.674Z,15.60
2023-04-25T11:31:05.733Z,15.50
2023-04-25T11:33:33.196Z,15.40
2023-04-25T11:36:05.158Z,15.30
2023-04-25T11:38:35.268Z,15.20
2023-04-25T11:41:03.464Z,15.20
2023-04-25T11:43:30.978Z,15.30
2023-04-25T11:46:01.801Z,15.40
2023-04-25T11:48:37.503Z,15.80
2023-04-25T11:51:05.606Z,15.90
2023-04-25T11:53:33.190Z,15.90
2023-04-25T11:56:00.961Z,15.90
2023-04-25T11:58:29.098Z,16.00
2023-04-25T12:00:59.674Z,16.00
2023-04-25T12:03:32.407Z,16.00
2023-04-25T12:06:05.401Z,15.80
2023-04-25T12:08:36.836Z,15.80
2023-04-25T12:11:09.276Z,15.80
2023-04-25T12:13:54.375Z,15.80
2023-04-25T12:16:21.742Z,15.80
2023-04-25T12:18:49.337Z,15.80
2023-04-25T12:21:16.681Z,15.90
2023-04-25T12:23:43.996Z,15.90
2023-04-25T12:26:11.273Z,16.00
2023-04-25T12:28:38.469Z,16.30
2023-04-25T12:31:07.236Z,16.80
2023-04-25T12:33:38.938Z,17.10
2023-04-25T12:36:10.312Z,17.40
2023-04-25T12:38:43.190Z,17.60
2023-04-25T12:41:10.672Z,17.40
2023-04-25T12:43:37.909Z,17.50
2023-04-25T12:46:05.360Z,17.80
2023-04-25T12:48:32.639Z,17.80
2023-04-25T12:51:00.258Z,17.70
2023-04-25T12:53:27.437Z,17.40
2023-04-25T12:58:24.694Z,16.90
2023-04-25T13:00:51.927Z,16.80
2023-04-25T13:03:19.879Z,16.70
2023-04-25T13:05:47.383Z,16.50
2023-04-25T13:08:14.618Z,16.50
2023-04-25T13:10:42.089Z,16.70
2023-04-25T13:13:09.673Z,17.10
2023-04-25T13:15:37.644Z,17.30
2023-04-25T13:18:08.772Z,17.20
2023-04-25T13:20:36.188Z,16.90
2023-04-25T13:23:03.505Z,17.00
2023-04-25T13:25:31.014Z,17.50
2023-04-25T13:27:58.236Z,21.00
2023-04-25T13:30:25.534Z,24.70
2023-04-25T13:32:53.817Z,27.60
2023-04-25T13:35:21.088Z,28.30
2023-04-25T13:37:48.339Z,27.90
2023-04-25T13:40:15.608Z,28.20
2023-04-25T13:42:45.531Z,28.10
2023-04-25T13:45:13.045Z,26.10
2023-04-25T13:47:40.676Z,24.80
2023-04-25T13:50:19.492Z,25.00
2023-04-25T13:52:50.207Z,23.80
2023-04-25T13:55:25.283Z,23.00
2023-04-25T13:57:53.873Z,22.30
2023-04-25T14:00:22.460Z,21.80
2023-04-25T14:02:51.032Z,21.20
2023-04-25T14:05:18.640Z,21.50
2023-04-25T14:07:46.011Z,21.70
2023-04-25T14:10:13.493Z,22.70
2023-04-25T14:12:41.290Z,23.60
2023-04-25T14:15:08.804Z,24.40
2023-04-25T14:17:36.258Z,23.40
2023-04-25T14:20:06.649Z,23.00
2023-04-25T14:22:34.103Z,22.40
2023-04-25T14:25:01.447Z,22.00
2023-04-25T14:27:31.064Z,21.50
2023-04-25T14:29:58.308Z,21.80
2023-04-25T14:32:25.607Z,22.80
2023-04-25T14:34:52.992Z,23.30
2023-04-25T14:37:20.348Z,23.10
2023-04-25T14:39:47.529Z,23.50
2023-04-25T14:42:14.821Z,23.20
2023-04-25T14:44:42.067Z,22.90
2023-04-25T14:47:09.357Z,23.40
2023-04-25T14:49:36.568Z,23.50
2023-04-25T14:52:04.324Z,24.00
2023-04-25T14:54:31.548Z,24.60
2023-04-25T14:56:58.826Z,24.40
2023-04-25T14:59:26.618Z,24.90
2023-04-25T15:01:54.244Z,25.00
2023-04-25T15:04:24.380Z,25.40
2023-04-25T15:06:52.209Z,24.40
2023-04-25T15:09:20.474Z,22.90
2023-04-25T15:11:47.712Z,22.50
2023-04-25T15:14:15.211Z,22.00
2023-04-25T15:16:43.157Z,21.40
2023-04-25T15:19:10.448Z,21.10
2023-04-25T15:21:37.653Z,21.30
2023-04-25T15:24:05.119Z,22.30
2023-04-25T15:26:32.457Z,22.40
2023-04-25T15:28:59.651Z,21.80
2023-04-25T15:31:27.023Z,21.00
2023-04-25T15:33:54.394Z,21.20
2023-04-25T15:36:22.588Z,22.40
2023-04-25T15:38:49.762Z,23.40
2023-04-25T15:41:18.059Z,23.00
2023-04-25T15:43:47.654Z,22.90
2023-04-25T15:46:15.089Z,22.90
2023-04-25T15:48:42.547Z,22.30
2023-04-25T15:51:10.717Z,22.20
2023-04-25T15:53:38.061Z,21.90
2023-04-25T15:56:05.819Z,21.90
2023-04-25T15:58:33.217Z,21.70
2023-04-25T16:01:00.606Z,21.70
2023-04-25T16:03:28.416Z,21.20
2023-04-25T16:05:55.777Z,20.90
2023-04-25T16:08:25.014Z,20.80
2023-04-25T16:10:52.847Z,20.50
2023-04-25T16:13:20.064Z,20.60
2023-04-25T16:15:47.267Z,20.40
2023-04-25T16:18:14.714Z,20.30
2023-04-25T16:20:42.245Z,20.30
2023-04-25T16:23:09.647Z,20.10
2023-04-25T16:25:38.025Z,19.90
2023-04-25T16:28:05.585Z,19.60
2023-04-25T16:30:32.838Z,19.40
2023-04-25T16:33:00.135Z,19.20
2023-04-25T16:35:30.554Z,19.00
2023-04-25T16:37:58.334Z,19.10
2023-04-25T16:40:25.514Z,19.10
2023-04-25T16:42:52.775Z,19.20
2023-04-25T16:45:21.209Z,19.10
2023-04-25T16:47:50.998Z,19.10
2023-04-25T16:50:19.715Z,18.80
2023-04-25T16:52:46.945Z,18.60
2023-04-25T16:55:14.199Z,18.60
2023-04-25T16:57:41.675Z,18.40
2023-04-25T17:00:09.910Z,18.50
2023-04-25T17:02:38.069Z,18.40
2023-04-25T17:05:05.853Z,18.40
2023-04-25T17:07:33.177Z,18.50
2023-04-25T17:10:00.627Z,18.40
2023-04-25T17:12:28.001Z,18.30
2023-04-25T17:14:55.270Z,18.30
2023-04-25T17:17:22.518Z,18.30
2023-04-25T17:19:49.860Z,18.20
2023-04-25T17:22:17.219Z,18.10
2023-04-25T17:24:44.422Z,17.90
2023-04-25T17:27:12.303Z,17.70
2023-04-25T17:29:39.495Z,17.50
2023-04-25T17:32:06.748Z,17.40
2023-04-25T17:34:34.292Z,17.30
2023-04-25T17:37:01.437Z,17.20
2023-04-25T17:39:28.622Z,17.10
2023-04-25T17:41:55.741Z,17.10
2023-04-25T17:44:22.900Z,17.10
2023-04-25T17:46:51.299Z,17.00
2023-04-25T17:49:18.668Z,17.00
2023-04-25T17:51:46.172Z,17.00
2023-04-25T17:54:13.531Z,16.90
2023-04-25T17:56:40.683Z,16.90
2023-04-25T17:59:07.904Z,16.90
2023-04-25T18:01:36.044Z,16.80
2023-04-25T18:04:04.245Z,16.90
2023-04-25T18:06:35.122Z,16.80
2023-04-25T18:09:03.088Z,16.80
2023-04-25T18:11:30.906Z,16.80
2023-04-25T18:13:58.310Z,16.80
2023-04-25T18:16:29.572Z,16.70
2023-04-25T18:19:05.303Z,16.70
2023-04-25T18:21:33.065Z,16.70
2023-04-25T18:24:01.381Z,16.70
2023-04-25T18:26:30.812Z,16.70
2023-04-25T18:28:58.699Z,16.70
2023-04-25T18:31:26.634Z,16.70
2023-04-25T18:33:54.275Z,16.60
2023-04-25T18:36:24.460Z,16.60
2023-04-25T18:38:56.181Z,16.50
2023-04-25T18:43:56.236Z,16.40
2023-04-25T18:46:27.021Z,16.40
2023-04-25T18:48:55.084Z,16.40
2023-04-25T18:51:30.512Z,16.40
2023-04-25T18:53:59.811Z,16.30
2023-04-25T18:56:28.125Z,16.20
2023-04-25T18:58:56.174Z,16.10
2023-04-25T19:01:25.643Z,16.10
2023-04-25T19:03:56.964Z,16.10
2023-04-25T19:06:29.588Z,16.10
2023-04-25T19:08:57.723Z,16.10
2023-04-25T19:11:25.158Z,16.10
2023-04-25T19:13:53.023Z,16.10
2023-04-25T19:16:22.401Z,16.10
2023-04-25T19:18:52.405Z,16.10
2023-04-25T19:21:20.498Z,16.10
2023-04-25T19:23:47.800Z,16.10
2023-04-25T19:26:14.954Z,16.10
2023-04-25T19:28:44.889Z,16.00
2023-04-25T19:31:22.287Z,15.90
2023-04-25T19:33:49.774Z,15.90
2023-04-25T19:36:17.493Z,15.80
2023-04-25T19:38:45.963Z,15.80
2023-04-25T19:41:13.126Z,15.80
2023-04-25T19:43:40.496Z,15.80
2023-04-25T19:46:07.996Z,15.80
2023-04-25T19:48:35.267Z,15.80
2023-04-25T19:51:02.757Z,15.80
2023-04-25T19:53:30.009Z,15.80
2023-04-25T19:55:57.575Z,15.90
2023-04-25T19:58:24.884Z,15.90
2023-04-25T20:00:52.450Z,15.80
2023-04-25T20:03:19.681Z,15.70
2023-04-25T20:05:47.132Z,15.60
2023-04-25T20:08:14.359Z,15.60
2023-04-25T20:10:42.580Z,15.60
2023-04-25T20:13:10.689Z,15.60
2023-04-25T20:15:38.630Z,15.50
2023-04-25T20:18:05.858Z,15.50
2023-04-25T20:20:33.410Z,15.40
2023-04-25T20:23:00.930Z,15.40
2023-04-25T20:25:28.278Z,15.30
2023-04-25T20:27:56.533Z,15.30
2023-04-25T20:30:23.814Z,15.20
2023-04-25T20:32:51.185Z,15.20
2023-04-25T20:35:18.597Z,15.20
2023-04-25T20:37:46.594Z,15.20
2023-04-25T20:40:13.836Z,15.10
2023-04-25T20:42:41.048Z,15.00
2023-04-25T20:45:13.425Z,15.00
2023-04-25T20:47:41.570Z,14.90
2023-04-25T20:50:09.452Z,14.80
2023-04-25T20:52:38.682Z,14.80
2023-04-25T20:55:07.023Z,14.70
2023-04-25T20:57:34.314Z,14.70
2023-04-25T21:00:01.528Z,14.70
2023-04-25T21:02:32.481Z,14.50
2023-04-25T21:04:59.690Z,14.50
2023-04-25T21:07:27.018Z,14.30
2023-04-25T21:09:54.361Z,14.20
2023-04-25T21:12:21.659Z,14.10
2023-04-25T21:14:48.799Z,14.10
2023-04-25T21:17:16.107Z,14.10
2023-04-25T21:19:43.399Z,14.10
2023-04-25T21:22:10.683Z,14.20
2023-04-25T21:24:37.804Z,14.20
2023-04-25T21:27:05.097Z,14.20
2023-04-25T21:29:34.593Z,14.20
2023-04-25T21:32:04.429Z,14.20
2023-04-25T21:34:32.007Z,14.20
2023-04-25T21:36:59.221Z,14.30
2023-04-25T21:39:26.582Z,14.30
2023-04-25T21:41:53.818Z,14.30
2023-04-25T21:44:21.336Z,14.20
2023-04-25T21:46:48.959Z,14.30
2023-04-25T21:49:16.619Z,14.20
2023-04-25T21:51:44.510Z,14.20
2023-04-25T21:54:12.356Z,14.10
2023-04-25T21:56:39.609Z,14.00
2023-04-25T21:59:06.722Z,13.90
2023-04-25T22:01:34.374Z,13.80
2023-04-25T22:04:01.860Z,13.80
2023-04-25T22:06:29.480Z,13.80
2023-04-25T22:08:57.424Z,13.80
2023-04-25T22:11:24.599Z,13.80
2023-04-25T22:13:52.200Z,13.70
2023-04-25T22:16:19.644Z,13.70
2023-04-25T22:18:47.907Z,13.70
2023-04-25T22:21:15.327Z,13.70
2023-04-25T22:23:42.529Z,13.80
2023-04-25T22:26:10.017Z,13.70
2023-04-25T22:28:37.527Z,13.70
2023-04-25T22:31:04.912Z,13.60
2023-04-25T22:33:33.706Z,13.60
2023-04-25T22:36:02.234Z,13.50
2023-04-25T22:38:30.815Z,13.40
2023-04-25T22:40:58.042Z,13.40
2023-04-25T22:43:26.184Z,13.40
2023-04-25T22:45:53.529Z,13.40
2023-04-25T22:48:20.792Z,13.40
2023-04-25T22:50:47.893Z,13.40
2023-04-25T22:53:15.060Z,13.50
2023-04-25T22:55:44.416Z,13.50
2023-04-25T22:58:11.669Z,13.60
2023-04-25T23:00:39.004Z,13.70
2023-04-25T23:03:06.904Z,13.70
2023-04-25T23:05:34.393Z,13.80
2023-04-25T23:08:01.679Z,13.80
2023-04-25T23:10:28.974Z,13.70
2023-04-25T23:13:00.392Z,13.70
2023-04-25T23:15:31.059Z,13.70
2023-04-25T23:17:59.103Z,13.60
2023-04-25T23:20:26.766Z,13.60
2023-04-25T23:22:55.054Z,13.60
2023-04-25T23:25:22.436Z,13.40
2023-04-25T23:27:50.263Z,13.30
2023-04-25T23:30:17.874Z,13.20
2023-04-25T23:32:45.186Z,13.10
2023-04-25T23:35:12.404Z,13.10
2023-04-25T23:37:43.460Z,13.20
2023-04-25T23:40:12.447Z,13.20
2023-04-25T23:42:41.322Z,13.20
2023-04-25T23:45:09.412Z,13.20
2023-04-25T23:47:37.514Z,13.20
2023-04-25T23:50:06.082Z,13.20
2023-04-25T23:52:33.280Z,13.20
2023-04-25T23:55:00.443Z,13.20
2023-04-25T23:57:27.730Z,13.20
2023-04-25T23:59:54.924Z,13.10
